sensor_id;sensor_type;location;lat;lon;timestamp;temperature;humidity
18299;DHT22;9275;48.690;9.686;2024-01-27T00:02:47;-1.20;99.90
18299;DHT22;9275;48.690;9.686;2024-01-27T00:07:52;-1.30;99.90
18299;DHT22;9275;48.690;9.686;2024-01-27T00:12:56;-1.30;99.90
18299;DHT22;9275;48.690;9.686;2024-01-27T00:18:03;-1.30;99.90
18299;DHT22;9275;48.690;9.686;2024-01-27T00:23:07;-1.50;99.90
18299;DHT22;9275;48.690;9.686;2024-01-27T00:28:13;-1.70;99.90
18299;DHT22;9275;48.690;9.686;2024-01-27T00:33:19;-1.80;99.90
18299;DHT22;9275;48.690;9.686;2024-01-27T00:38:23;-1.90;99.90
18299;DHT22;9275;48.690;9.686;2024-01-27T00:43:28;-1.90;99.90
18299;DHT22;9275;48.690;9.686;2024-01-27T00:48:34;-2.00;99.90
18299;DHT22;9275;48.690;9.686;2024-01-27T00:53:39;-2.10;99.90
18299;DHT22;9275;48.690;9.686;2024-01-27T00:58:44;-2.00;99.90
18299;DHT22;9275;48.690;9.686;2024-01-27T01:03:50;-2.10;99.90
18299;DHT22;9275;48.690;9.686;2024-01-27T01:08:54;-2.20;99.90
18299;DHT22;9275;48.690;9.686;2024-01-27T01:13:59;-2.10;99.90
18299;DHT22;9275;48.690;9.686;2024-01-27T01:19:05;-2.20;99.90
18299;DHT22;9275;48.690;9.686;2024-01-27T01:24:11;-2.70;99.90
18299;DHT22;9275;48.690;9.686;2024-01-27T01:29:16;-2.80;99.90
18299;DHT22;9275;48.690;9.686;2024-01-27T01:34:22;-2.80;99.90
18299;DHT22;9275;48.690;9.686;2024-01-27T01:39:27;-2.60;99.90
18299;DHT22;9275;48.690;9.686;2024-01-27T01:44:31;-2.50;99.90
18299;DHT22;9275;48.690;9.686;2024-01-27T01:49:37;-2.60;99.90
18299;DHT22;9275;48.690;9.686;2024-01-27T01:54:42;-2.50;99.90
18299;DHT22;9275;48.690;9.686;2024-01-27T01:59:47;-2.50;99.90
18299;DHT22;9275;48.690;9.686;2024-01-27T02:04:53;-2.70;99.90
18299;DHT22;9275;48.690;9.686;2024-01-27T02:09:58;-2.90;99.90
18299;DHT22;9275;48.690;9.686;2024-01-27T02:15:03;-2.90;99.90
18299;DHT22;9275;48.690;9.686;2024-01-27T02:20:10;-3.00;99.90
18299;DHT22;9275;48.690;9.686;2024-01-27T02:25:16;-3.00;99.90
18299;DHT22;9275;48.690;9.686;2024-01-27T02:30:20;-3.00;99.90
18299;DHT22;9275;48.690;9.686;2024-01-27T02:35:25;-2.90;99.90
18299;DHT22;9275;48.690;9.686;2024-01-27T02:40:31;-3.10;99.90
18299;DHT22;9275;48.690;9.686;2024-01-27T02:45:35;-3.20;99.90
18299;DHT22;9275;48.690;9.686;2024-01-27T02:50:40;-3.50;99.90
18299;DHT22;9275;48.690;9.686;2024-01-27T02:55:46;-3.50;99.90
18299;DHT22;9275;48.690;9.686;2024-01-27T03:00:50;-3.50;99.90
18299;DHT22;9275;48.690;9.686;2024-01-27T03:05:55;-3.40;99.90
18299;DHT22;9275;48.690;9.686;2024-01-27T03:11:01;-3.60;99.90
18299;DHT22;9275;48.690;9.686;2024-01-27T03:16:09;-3.90;99.90
18299;DHT22;9275;48.690;9.686;2024-01-27T03:21:14;-4.00;99.90
18299;DHT22;9275;48.690;9.686;2024-01-27T03:26:20;-3.90;99.90
18299;DHT22;9275;48.690;9.686;2024-01-27T03:31:30;-3.90;99.90
18299;DHT22;9275;48.690;9.686;2024-01-27T03:36:35;-4.00;99.90
18299;DHT22;9275;48.690;9.686;2024-01-27T03:41:41;-4.30;99.90
18299;DHT22;9275;48.690;9.686;2024-01-27T03:46:45;-4.30;99.90
18299;DHT22;9275;48.690;9.686;2024-01-27T03:51:51;-4.40;99.90
18299;DHT22;9275;48.690;9.686;2024-01-27T03:56:57;-4.20;99.90
18299;DHT22;9275;48.690;9.686;2024-01-27T04:02:01;-4.00;99.90
18299;DHT22;9275;48.690;9.686;2024-01-27T04:07:06;-4.20;99.90
18299;DHT22;9275;48.690;9.686;2024-01-27T04:12:12;-4.30;99.90
18299;DHT22;9275;48.690;9.686;2024-01-27T04:17:17;-4.40;99.90
18299;DHT22;9275;48.690;9.686;2024-01-27T04:22:21;-4.40;99.90
18299;DHT22;9275;48.690;9.686;2024-01-27T04:27:28;-4.60;99.90
18299;DHT22;9275;48.690;9.686;2024-01-27T04:32:32;-4.90;99.90
18299;DHT22;9275;48.690;9.686;2024-01-27T04:37:37;-5.20;99.90
18299;DHT22;9275;48.690;9.686;2024-01-27T04:42:43;-5.00;99.90
18299;DHT22;9275;48.690;9.686;2024-01-27T04:47:48;-5.10;99.90
18299;DHT22;9275;48.690;9.686;2024-01-27T04:52:53;-5.10;99.90
18299;DHT22;9275;48.690;9.686;2024-01-27T04:57:59;-4.90;99.90
18299;DHT22;9275;48.690;9.686;2024-01-27T05:03:04;-5.10;99.90
18299;DHT22;9275;48.690;9.686;2024-01-27T05:08:10;-5.00;99.90
18299;DHT22;9275;48.690;9.686;2024-01-27T05:13:16;-5.00;99.90
18299;DHT22;9275;48.690;9.686;2024-01-27T05:18:21;-4.90;99.90
18299;DHT22;9275;48.690;9.686;2024-01-27T05:23:25;-5.00;99.90
18299;DHT22;9275;48.690;9.686;2024-01-27T05:28:32;-5.00;99.90
18299;DHT22;9275;48.690;9.686;2024-01-27T05:33:36;-5.10;99.90
18299;DHT22;9275;48.690;9.686;2024-01-27T05:38:42;-5.10;99.90
18299;DHT22;9275;48.690;9.686;2024-01-27T05:43:48;-5.20;99.90
18299;DHT22;9275;48.690;9.686;2024-01-27T05:48:52;-5.30;99.90
18299;DHT22;9275;48.690;9.686;2024-01-27T05:54:01;-5.30;99.90
18299;DHT22;9275;48.690;9.686;2024-01-27T05:59:09;-5.50;99.90
18299;DHT22;9275;48.690;9.686;2024-01-27T06:04:14;-5.60;99.90
18299;DHT22;9275;48.690;9.686;2024-01-27T06:09:18;-5.70;99.90
18299;DHT22;9275;48.690;9.686;2024-01-27T06:14:24;-5.80;99.90
18299;DHT22;9275;48.690;9.686;2024-01-27T06:19:29;-5.80;99.90
18299;DHT22;9275;48.690;9.686;2024-01-27T06:24:33;-5.90;99.90
18299;DHT22;9275;48.690;9.686;2024-01-27T06:29:40;-5.80;99.90
18299;DHT22;9275;48.690;9.686;2024-01-27T06:34:45;-6.00;99.90
18299;DHT22;9275;48.690;9.686;2024-01-27T06:39:49;-6.00;99.90
18299;DHT22;9275;48.690;9.686;2024-01-27T06:44:55;-6.00;99.90
18299;DHT22;9275;48.690;9.686;2024-01-27T06:50:00;-6.10;99.90
18299;DHT22;9275;48.690;9.686;2024-01-27T06:55:06;-6.30;99.90
18299;DHT22;9275;48.690;9.686;2024-01-27T07:00:14;-6.30;99.90
18299;DHT22;9275;48.690;9.686;2024-01-27T07:05:19;-6.30;99.90
18299;DHT22;9275;48.690;9.686;2024-01-27T07:10:24;-6.30;99.90
18299;DHT22;9275;48.690;9.686;2024-01-27T07:15:30;-6.60;99.90
18299;DHT22;9275;48.690;9.686;2024-01-27T07:20:34;-6.60;99.90
18299;DHT22;9275;48.690;9.686;2024-01-27T07:25:40;-6.60;99.90
18299;DHT22;9275;48.690;9.686;2024-01-27T07:30:46;-6.50;99.90
18299;DHT22;9275;48.690;9.686;2024-01-27T07:35:50;-6.40;99.90
18299;DHT22;9275;48.690;9.686;2024-01-27T07:40:55;-6.30;99.90
18299;DHT22;9275;48.690;9.686;2024-01-27T07:46:01;-6.40;99.90
18299;DHT22;9275;48.690;9.686;2024-01-27T07:51:05;-6.70;99.90
18299;DHT22;9275;48.690;9.686;2024-01-27T07:56:10;-7.10;99.90
18299;DHT22;9275;48.690;9.686;2024-01-27T08:01:16;-7.00;99.90
18299;DHT22;9275;48.690;9.686;2024-01-27T08:06:28;-7.10;99.90
18299;DHT22;9275;48.690;9.686;2024-01-27T08:11:33;-7.20;99.90
18299;DHT22;9275;48.690;9.686;2024-01-27T08:16:39;-7.30;99.90
18299;DHT22;9275;48.690;9.686;2024-01-27T08:21:44;-7.40;99.90
18299;DHT22;9275;48.690;9.686;2024-01-27T08:26:48;-7.40;99.90
18299;DHT22;9275;48.690;9.686;2024-01-27T08:31:54;-7.30;99.90
18299;DHT22;9275;48.690;9.686;2024-01-27T08:37:00;-7.00;99.90
18299;DHT22;9275;48.690;9.686;2024-01-27T08:42:06;-6.90;99.90
18299;DHT22;9275;48.690;9.686;2024-01-27T08:47:12;-6.90;99.90
18299;DHT22;9275;48.690;9.686;2024-01-27T08:52:16;-6.80;99.90
18299;DHT22;9275;48.690;9.686;2024-01-27T08:57:21;-6.90;99.90
18299;DHT22;9275;48.690;9.686;2024-01-27T09:02:27;-7.00;99.90
18299;DHT22;9275;48.690;9.686;2024-01-27T09:07:31;-7.00;99.90
18299;DHT22;9275;48.690;9.686;2024-01-27T09:12:36;-6.80;99.90
18299;DHT22;9275;48.690;9.686;2024-01-27T09:17:42;-6.70;99.90
18299;DHT22;9275;48.690;9.686;2024-01-27T09:22:46;-6.30;99.90
18299;DHT22;9275;48.690;9.686;2024-01-27T09:27:53;-6.10;99.90
18299;DHT22;9275;48.690;9.686;2024-01-27T09:32:59;-5.90;99.90
18299;DHT22;9275;48.690;9.686;2024-01-27T09:38:05;-5.70;99.90
18299;DHT22;9275;48.690;9.686;2024-01-27T09:43:13;-5.70;99.90
18299;DHT22;9275;48.690;9.686;2024-01-27T09:48:19;-5.30;99.90
18299;DHT22;9275;48.690;9.686;2024-01-27T09:53:24;-4.80;99.90
18299;DHT22;9275;48.690;9.686;2024-01-27T09:58:29;-4.60;99.90
18299;DHT22;9275;48.690;9.686;2024-01-27T10:03:36;-4.00;99.90
18299;DHT22;9275;48.690;9.686;2024-01-27T10:08:52;-3.40;99.90
18299;DHT22;9275;48.690;9.686;2024-01-27T10:13:58;-2.90;99.90
18299;DHT22;9275;48.690;9.686;2024-01-27T10:19:04;-2.60;99.90
18299;DHT22;9275;48.690;9.686;2024-01-27T10:24:09;-2.50;99.90
18299;DHT22;9275;48.690;9.686;2024-01-27T10:29:14;-2.40;99.90
18299;DHT22;9275;48.690;9.686;2024-01-27T10:34:21;-2.50;99.90
18299;DHT22;9275;48.690;9.686;2024-01-27T10:39:26;-2.60;99.90
18299;DHT22;9275;48.690;9.686;2024-01-27T10:44:32;-2.30;99.90
18299;DHT22;9275;48.690;9.686;2024-01-27T10:49:42;-2.10;99.90
18299;DHT22;9275;48.690;9.686;2024-01-27T10:54:48;-1.80;99.90
18299;DHT22;9275;48.690;9.686;2024-01-27T10:59:53;-1.60;99.90
18299;DHT22;9275;48.690;9.686;2024-01-27T11:05:02;-1.30;99.90
18299;DHT22;9275;48.690;9.686;2024-01-27T11:10:09;-1.10;99.90
18299;DHT22;9275;48.690;9.686;2024-01-27T11:15:13;-1.10;99.90
18299;DHT22;9275;48.690;9.686;2024-01-27T11:20:19;-0.90;99.90
18299;DHT22;9275;48.690;9.686;2024-01-27T11:25:24;-0.70;99.90
18299;DHT22;9275;48.690;9.686;2024-01-27T11:30:30;-0.40;99.90
18299;DHT22;9275;48.690;9.686;2024-01-27T11:35:38;-0.20;99.90
18299;DHT22;9275;48.690;9.686;2024-01-27T11:40:46;0.00;99.90
18299;DHT22;9275;48.690;9.686;2024-01-27T11:45:57;0.30;99.90
18299;DHT22;9275;48.690;9.686;2024-01-27T11:51:06;0.40;99.90
18299;DHT22;9275;48.690;9.686;2024-01-27T11:56:11;0.60;99.90
18299;DHT22;9275;48.690;9.686;2024-01-27T12:01:15;0.70;99.90
18299;DHT22;9275;48.690;9.686;2024-01-27T12:06:23;0.90;99.90
18299;DHT22;9275;48.690;9.686;2024-01-27T12:11:28;1.20;99.90
18299;DHT22;9275;48.690;9.686;2024-01-27T12:16:34;1.50;99.90
18299;DHT22;9275;48.690;9.686;2024-01-27T12:21:47;1.70;99.90
18299;DHT22;9275;48.690;9.686;2024-01-27T12:26:51;1.70;99.90
18299;DHT22;9275;48.690;9.686;2024-01-27T12:31:56;1.70;99.90
18299;DHT22;9275;48.690;9.686;2024-01-27T12:37:02;1.80;99.90
18299;DHT22;9275;48.690;9.686;2024-01-27T12:42:07;1.70;99.90
18299;DHT22;9275;48.690;9.686;2024-01-27T12:47:12;1.70;99.90
18299;DHT22;9275;48.690;9.686;2024-01-27T12:52:18;1.60;99.90
18299;DHT22;9275;48.690;9.686;2024-01-27T12:57:25;1.70;99.90
18299;DHT22;9275;48.690;9.686;2024-01-27T13:02:29;1.80;99.90
18299;DHT22;9275;48.690;9.686;2024-01-27T13:07:35;1.90;99.90
18299;DHT22;9275;48.690;9.686;2024-01-27T13:12:40;2.10;99.90
18299;DHT22;9275;48.690;9.686;2024-01-27T13:17:44;2.10;99.90
18299;DHT22;9275;48.690;9.686;2024-01-27T13:22:51;2.00;99.90
18299;DHT22;9275;48.690;9.686;2024-01-27T13:27:56;2.10;99.90
18299;DHT22;9275;48.690;9.686;2024-01-27T13:33:03;2.10;99.90
18299;DHT22;9275;48.690;9.686;2024-01-27T13:38:09;2.10;99.90
18299;DHT22;9275;48.690;9.686;2024-01-27T13:43:13;2.00;99.90
18299;DHT22;9275;48.690;9.686;2024-01-27T13:48:18;2.10;99.90
18299;DHT22;9275;48.690;9.686;2024-01-27T13:53:25;2.10;99.90
18299;DHT22;9275;48.690;9.686;2024-01-27T13:58:47;2.10;99.90
18299;DHT22;9275;48.690;9.686;2024-01-27T14:03:52;2.20;99.90
18299;DHT22;9275;48.690;9.686;2024-01-27T14:08:59;2.20;99.90
18299;DHT22;9275;48.690;9.686;2024-01-27T14:14:04;2.20;99.90
18299;DHT22;9275;48.690;9.686;2024-01-27T14:19:08;2.20;99.90
18299;DHT22;9275;48.690;9.686;2024-01-27T14:24:15;2.10;99.90
18299;DHT22;9275;48.690;9.686;2024-01-27T14:29:19;2.20;99.90
18299;DHT22;9275;48.690;9.686;2024-01-27T14:34:24;2.10;99.90
18299;DHT22;9275;48.690;9.686;2024-01-27T14:39:30;2.10;99.90
18299;DHT22;9275;48.690;9.686;2024-01-27T14:44:36;2.10;99.90
18299;DHT22;9275;48.690;9.686;2024-01-27T14:49:41;2.10;99.90
18299;DHT22;9275;48.690;9.686;2024-01-27T14:54:49;2.10;99.90
18299;DHT22;9275;48.690;9.686;2024-01-27T14:59:54;2.20;99.90
18299;DHT22;9275;48.690;9.686;2024-01-27T15:04:59;2.20;99.90
18299;DHT22;9275;48.690;9.686;2024-01-27T15:10:06;2.20;99.90
18299;DHT22;9275;48.690;9.686;2024-01-27T15:15:10;2.20;99.90
18299;DHT22;9275;48.690;9.686;2024-01-27T15:20:15;2.20;99.90
18299;DHT22;9275;48.690;9.686;2024-01-27T15:25:22;2.20;99.90
18299;DHT22;9275;48.690;9.686;2024-01-27T15:30:27;2.30;99.90
18299;DHT22;9275;48.690;9.686;2024-01-27T15:35:32;2.30;99.90
18299;DHT22;9275;48.690;9.686;2024-01-27T15:40:42;2.30;99.90
18299;DHT22;9275;48.690;9.686;2024-01-27T15:45:47;2.30;99.90
18299;DHT22;9275;48.690;9.686;2024-01-27T15:50:55;2.30;99.90
18299;DHT22;9275;48.690;9.686;2024-01-27T15:56:01;2.40;99.90
18299;DHT22;9275;48.690;9.686;2024-01-27T16:01:06;2.40;99.90
18299;DHT22;9275;48.690;9.686;2024-01-27T16:06:11;2.30;99.90
18299;DHT22;9275;48.690;9.686;2024-01-27T16:11:17;2.40;99.90
18299;DHT22;9275;48.690;9.686;2024-01-27T16:16:22;2.50;99.90
18299;DHT22;9275;48.690;9.686;2024-01-27T16:21:28;2.50;99.90
18299;DHT22;9275;48.690;9.686;2024-01-27T16:26:36;2.60;99.90
18299;DHT22;9275;48.690;9.686;2024-01-27T16:31:41;2.60;99.90
18299;DHT22;9275;48.690;9.686;2024-01-27T16:36:46;2.70;99.90
18299;DHT22;9275;48.690;9.686;2024-01-27T16:41:52;2.70;99.90
18299;DHT22;9275;48.690;9.686;2024-01-27T16:46:57;2.70;99.90
18299;DHT22;9275;48.690;9.686;2024-01-27T16:52:01;2.80;99.90
18299;DHT22;9275;48.690;9.686;2024-01-27T16:57:07;2.90;99.90
18299;DHT22;9275;48.690;9.686;2024-01-27T17:02:12;2.90;99.90
18299;DHT22;9275;48.690;9.686;2024-01-27T17:07:17;2.90;99.90
18299;DHT22;9275;48.690;9.686;2024-01-27T17:12:23;3.00;99.90
18299;DHT22;9275;48.690;9.686;2024-01-27T17:17:28;3.00;99.90
18299;DHT22;9275;48.690;9.686;2024-01-27T17:22:34;3.00;99.90
18299;DHT22;9275;48.690;9.686;2024-01-27T17:27:40;3.10;99.90
18299;DHT22;9275;48.690;9.686;2024-01-27T17:32:45;3.20;99.90
18299;DHT22;9275;48.690;9.686;2024-01-27T17:37:50;3.20;99.90
18299;DHT22;9275;48.690;9.686;2024-01-27T17:42:56;3.30;99.90
18299;DHT22;9275;48.690;9.686;2024-01-27T17:48:01;3.30;99.90
18299;DHT22;9275;48.690;9.686;2024-01-27T17:53:06;3.30;99.90
18299;DHT22;9275;48.690;9.686;2024-01-27T17:58:12;3.40;99.90
18299;DHT22;9275;48.690;9.686;2024-01-27T18:03:18;3.40;99.90
18299;DHT22;9275;48.690;9.686;2024-01-27T18:08:23;3.40;99.90
18299;DHT22;9275;48.690;9.686;2024-01-27T18:13:30;3.40;99.90
18299;DHT22;9275;48.690;9.686;2024-01-27T18:18:34;3.40;99.90
18299;DHT22;9275;48.690;9.686;2024-01-27T18:23:39;3.40;99.90
18299;DHT22;9275;48.690;9.686;2024-01-27T18:28:45;3.50;99.90
18299;DHT22;9275;48.690;9.686;2024-01-27T18:33:50;3.50;99.90
18299;DHT22;9275;48.690;9.686;2024-01-27T18:38:54;3.50;99.90
18299;DHT22;9275;48.690;9.686;2024-01-27T18:44:01;3.50;99.90
18299;DHT22;9275;48.690;9.686;2024-01-27T18:49:05;3.60;99.90
18299;DHT22;9275;48.690;9.686;2024-01-27T18:54:11;3.50;99.90
18299;DHT22;9275;48.690;9.686;2024-01-27T18:59:19;3.50;99.90
18299;DHT22;9275;48.690;9.686;2024-01-27T19:04:24;3.50;99.90
18299;DHT22;9275;48.690;9.686;2024-01-27T19:09:29;3.50;99.90
18299;DHT22;9275;48.690;9.686;2024-01-27T19:14:36;3.50;99.90
18299;DHT22;9275;48.690;9.686;2024-01-27T19:19:41;3.60;99.90
18299;DHT22;9275;48.690;9.686;2024-01-27T19:24:45;3.50;99.90
18299;DHT22;9275;48.690;9.686;2024-01-27T19:29:52;3.60;99.90
18299;DHT22;9275;48.690;9.686;2024-01-27T19:34:56;3.60;99.90
18299;DHT22;9275;48.690;9.686;2024-01-27T19:40:01;3.60;99.90
18299;DHT22;9275;48.690;9.686;2024-01-27T19:45:08;3.60;99.90
18299;DHT22;9275;48.690;9.686;2024-01-27T19:50:13;3.60;99.90
18299;DHT22;9275;48.690;9.686;2024-01-27T19:55:18;3.60;99.90
18299;DHT22;9275;48.690;9.686;2024-01-27T20:00:24;3.60;99.90
18299;DHT22;9275;48.690;9.686;2024-01-27T20:05:33;3.60;99.90
18299;DHT22;9275;48.690;9.686;2024-01-27T20:10:37;3.70;99.90
18299;DHT22;9275;48.690;9.686;2024-01-27T20:15:43;3.80;99.90
18299;DHT22;9275;48.690;9.686;2024-01-27T20:20:48;3.70;99.90
18299;DHT22;9275;48.690;9.686;2024-01-27T20:25:57;3.70;99.90
18299;DHT22;9275;48.690;9.686;2024-01-27T20:31:03;3.70;99.90
18299;DHT22;9275;48.690;9.686;2024-01-27T20:36:07;3.60;99.90
18299;DHT22;9275;48.690;9.686;2024-01-27T20:41:13;3.60;99.90
18299;DHT22;9275;48.690;9.686;2024-01-27T20:46:20;3.70;99.90
18299;DHT22;9275;48.690;9.686;2024-01-27T20:51:24;3.60;99.90
18299;DHT22;9275;48.690;9.686;2024-01-27T20:56:29;3.60;99.90
18299;DHT22;9275;48.690;9.686;2024-01-27T21:01:37;3.60;99.90
18299;DHT22;9275;48.690;9.686;2024-01-27T21:06:42;3.60;99.90
18299;DHT22;9275;48.690;9.686;2024-01-27T21:11:47;3.50;99.90
18299;DHT22;9275;48.690;9.686;2024-01-27T21:16:53;3.60;99.90
18299;DHT22;9275;48.690;9.686;2024-01-27T21:21:58;3.60;99.90
18299;DHT22;9275;48.690;9.686;2024-01-27T21:27:03;3.50;99.90
18299;DHT22;9275;48.690;9.686;2024-01-27T21:32:09;3.50;99.90
18299;DHT22;9275;48.690;9.686;2024-01-27T21:37:14;3.50;99.90
18299;DHT22;9275;48.690;9.686;2024-01-27T21:42:18;3.50;99.90
18299;DHT22;9275;48.690;9.686;2024-01-27T21:47:25;3.50;99.90
18299;DHT22;9275;48.690;9.686;2024-01-27T21:52:29;3.50;99.90
18299;DHT22;9275;48.690;9.686;2024-01-27T21:57:34;3.50;99.90
18299;DHT22;9275;48.690;9.686;2024-01-27T22:02:40;3.50;99.90
18299;DHT22;9275;48.690;9.686;2024-01-27T22:07:45;3.40;99.90
18299;DHT22;9275;48.690;9.686;2024-01-27T22:12:49;3.40;99.90
18299;DHT22;9275;48.690;9.686;2024-01-27T22:17:56;3.40;99.90
18299;DHT22;9275;48.690;9.686;2024-01-27T22:23:00;3.40;99.90
18299;DHT22;9275;48.690;9.686;2024-01-27T22:28:05;3.40;99.90
18299;DHT22;9275;48.690;9.686;2024-01-27T22:33:11;3.40;99.90
18299;DHT22;9275;48.690;9.686;2024-01-27T22:38:16;3.40;99.90
18299;DHT22;9275;48.690;9.686;2024-01-27T22:43:21;3.30;99.90
18299;DHT22;9275;48.690;9.686;2024-01-27T22:48:28;3.30;99.90
18299;DHT22;9275;48.690;9.686;2024-01-27T22:53:34;3.30;99.90
18299;DHT22;9275;48.690;9.686;2024-01-27T22:58:38;3.20;99.90
18299;DHT22;9275;48.690;9.686;2024-01-27T23:03:44;3.20;99.90
18299;DHT22;9275;48.690;9.686;2024-01-27T23:08:49;3.20;99.90
18299;DHT22;9275;48.690;9.686;2024-01-27T23:13:54;3.10;99.90
18299;DHT22;9275;48.690;9.686;2024-01-27T23:19:00;3.00;99.90
18299;DHT22;9275;48.690;9.686;2024-01-27T23:24:08;3.10;99.90
18299;DHT22;9275;48.690;9.686;2024-01-27T23:29:13;3.10;99.90
18299;DHT22;9275;48.690;9.686;2024-01-27T23:34:18;3.20;99.90
18299;DHT22;9275;48.690;9.686;2024-01-27T23:39:23;3.10;99.90
18299;DHT22;9275;48.690;9.686;2024-01-27T23:44:28;3.20;99.90
18299;DHT22;9275;48.690;9.686;2024-01-27T23:49:34;3.10;99.90
18299;DHT22;9275;48.690;9.686;2024-01-27T23:54:39;3.10;99.90
18299;DHT22;9275;48.690;9.686;2024-01-27T23:59:46;3.10;99.90
